Time;durP1;ratioP1;P1;durP2;ratioP2;P2;SDS_P1;SDS_P2;PMS_P1;PMS_P2;Temp;Humidity;BMP_temperature;BMP_pressure;BME280_temperature;BME280_humidity;BME280_pressure;Samples;Min_cycle;Max_cycle;Signal;HPM_P1;HPM_P2
2024/04/23 00:00:28;;;;;;;7.47;5.73;;;3.50;99.90;;;;;;5340580;26;20489;-65
2024/04/23 00:02:55;;;;;;;7.20;5.40;;;3.50;99.90;;;;;;5339588;26;20488;-65
2024/04/23 00:05:25;;;;;;;5.77;5.17;;;3.50;99.90;;;;;;5339648;26;20497;-65
2024/04/23 00:07:52;;;;;;;6.37;5.77;;;3.50;99.90;;;;;;5339165;26;20485;-66
2024/04/23 00:10:22;;;;;;;6.07;5.00;;;3.40;99.90;;;;;;5333761;26;20486;-65
2024/04/23 00:12:51;;;;;;;7.17;5.80;;;3.40;99.90;;;;;;5338479;26;20521;-65
2024/04/23 00:15:21;;;;;;;8.10;5.80;;;3.40;99.90;;;;;;5340415;26;20513;-65
2024/04/23 00:17:48;;;;;;;6.63;5.70;;;3.40;99.90;;;;;;5337951;26;20545;-65
2024/04/23 00:20:18;;;;;;;7.40;5.43;;;3.30;99.90;;;;;;5340374;26;20549;-64
2024/04/23 00:22:46;;;;;;;6.77;5.70;;;3.30;99.90;;;;;;5349306;26;21164;-66
2024/04/23 00:25:15;;;;;;;7.30;5.60;;;3.30;99.90;;;;;;5349054;26;20926;-66
2024/04/23 00:27:43;;;;;;;6.17;5.00;;;3.30;99.90;;;;;;5343317;26;20504;-66
2024/04/23 00:30:15;;;;;;;6.77;5.83;;;3.30;99.90;;;;;;5337949;26;20531;-65
2024/04/23 00:32:42;;;;;;;6.47;5.23;;;3.20;99.90;;;;;;5345692;26;20484;-65
2024/04/23 00:35:12;;;;;;;6.73;5.50;;;3.20;99.90;;;;;;5345242;26;20480;-65
2024/04/23 00:37:39;;;;;;;9.00;5.70;;;3.20;99.90;;;;;;5345585;26;20480;-65
2024/04/23 00:40:10;;;;;;;6.63;5.77;;;3.10;99.90;;;;;;5338197;26;20528;-65
2024/04/23 00:42:37;;;;;;;8.50;6.13;;;3.10;99.90;;;;;;5340397;26;20484;-65
2024/04/23 00:45:09;;;;;;;7.00;6.17;;;3.10;99.90;;;;;;5344695;26;20534;-66
2024/04/23 00:47:39;;;;;;;7.20;5.77;;;3.10;99.90;;;;;;5330597;26;20888;-65
2024/04/23 00:50:09;;;;;;;6.60;5.50;;;3.10;99.90;;;;;;5338813;26;21271;-65
2024/04/23 00:52:37;;;;;;;11.80;6.50;;;3.10;99.90;;;;;;5344310;26;20582;-65
2024/04/23 00:55:08;;;;;;;6.40;5.30;;;3.00;99.90;;;;;;5340419;26;21095;-65
2024/04/23 00:57:35;;;;;;;7.70;6.17;;;3.00;99.90;;;;;;5337672;26;21293;-65
2024/04/23 01:00:06;;;;;;;6.73;6.03;;;3.00;99.90;;;;;;5347218;26;20929;-65
2024/04/23 01:02:33;;;;;;;7.90;5.90;;;2.90;99.90;;;;;;5335328;26;20484;-66
2024/04/23 01:05:07;;;;;;;8.23;6.30;;;2.90;99.90;;;;;;5348112;26;20494;-65
2024/04/23 01:07:34;;;;;;;6.27;5.53;;;2.90;99.90;;;;;;5343870;26;21036;-65
2024/04/23 01:10:04;;;;;;;6.30;5.53;;;2.90;99.90;;;;;;5340014;26;20870;-65
2024/04/23 01:12:31;;;;;;;7.70;5.90;;;2.90;99.90;;;;;;5340850;26;20537;-66
2024/04/23 01:15:01;;;;;;;6.60;5.60;;;2.90;99.90;;;;;;5338590;26;20471;-65
2024/04/23 01:17:30;;;;;;;7.63;6.43;;;2.90;99.90;;;;;;5344471;26;21119;-65
2024/04/23 01:20:03;;;;;;;7.37;5.33;;;2.80;99.90;;;;;;5340554;26;20479;-66
2024/04/23 01:22:41;;;;;;;7.13;5.90;;;2.80;99.90;;;;;;5346203;26;20571;-65
2024/04/23 01:25:15;;;;;;;6.90;6.20;;;2.80;99.90;;;;;;5333817;26;20536;-64
2024/04/23 01:27:45;;;;;;;6.00;5.40;;;2.70;99.90;;;;;;5332329;26;20539;-65
2024/04/23 01:30:15;;;;;;;7.53;6.37;;;2.70;99.90;;;;;;5337653;26;20481;-65
2024/04/23 01:32:45;;;;;;;6.10;5.50;;;2.70;99.90;;;;;;5339684;26;20573;-65
2024/04/23 01:35:17;;;;;;;5.77;5.23;;;2.70;99.90;;;;;;5350343;26;20601;-66
2024/04/23 01:37:47;;;;;;;6.57;5.90;;;2.70;99.90;;;;;;5341865;26;20472;-65
2024/04/23 01:40:17;;;;;;;6.00;5.33;;;2.70;99.90;;;;;;5343443;26;20496;-65
2024/04/23 01:42:48;;;;;;;7.20;6.17;;;2.80;99.90;;;;;;5352594;26;20468;-65
2024/04/23 01:45:18;;;;;;;6.07;5.47;;;2.70;99.90;;;;;;5347794;26;21037;-65
2024/04/23 01:47:46;;;;;;;6.73;5.70;;;2.70;99.90;;;;;;5339777;26;20535;-65
2024/04/23 01:50:17;;;;;;;8.10;5.50;;;2.70;99.90;;;;;;5343046;26;20537;-65
2024/04/23 01:52:44;;;;;;;6.70;5.60;;;2.60;99.90;;;;;;5340730;26;21012;-65
2024/04/23 01:55:15;;;;;;;7.70;5.83;;;2.60;99.90;;;;;;5339787;26;20860;-65
2024/04/23 01:57:42;;;;;;;7.80;6.33;;;2.60;99.90;;;;;;5348110;26;20501;-65
2024/04/23 02:00:17;;;;;;;6.80;5.33;;;2.60;99.90;;;;;;5350772;26;20493;-66
2024/04/23 02:02:46;;;;;;;7.23;5.97;;;2.60;99.90;;;;;;5350415;26;22415;-65
2024/04/23 02:05:17;;;;;;;6.07;5.47;;;2.60;99.90;;;;;;5350441;26;20552;-66
2024/04/23 02:07:45;;;;;;;7.17;5.63;;;2.60;99.90;;;;;;5328880;26;21056;-66
2024/04/23 02:10:15;;;;;;;6.87;6.27;;;2.50;99.90;;;;;;5342358;26;20535;-66
2024/04/23 02:12:42;;;;;;;5.10;4.60;;;2.50;99.90;;;;;;5343135;26;20482;-66
2024/04/23 02:15:15;;;;;;;7.00;6.30;;;2.50;99.90;;;;;;5333579;26;20541;-66
2024/04/23 02:17:42;;;;;;;6.57;5.50;;;2.50;99.90;;;;;;5337521;26;20485;-66
2024/04/23 02:20:13;;;;;;;7.07;6.10;;;2.40;99.90;;;;;;5341754;26;20486;-66
2024/04/23 02:22:40;;;;;;;7.63;5.63;;;2.40;99.90;;;;;;5337149;26;20544;-66
2024/04/23 02:25:09;;;;;;;6.87;5.77;;;2.40;99.90;;;;;;5329490;26;20492;-66
2024/04/23 02:27:37;;;;;;;7.30;5.73;;;2.40;99.90;;;;;;5349892;26;20485;-66
2024/04/23 02:30:07;;;;;;;6.20;5.60;;;2.40;99.90;;;;;;5352892;26;20601;-66
2024/04/23 02:32:37;;;;;;;7.50;5.90;;;2.40;99.90;;;;;;5343734;26;20562;-66
2024/04/23 02:35:08;;;;;;;7.17;6.07;;;2.40;99.90;;;;;;5339074;26;20847;-66
2024/04/23 02:37:35;;;;;;;6.97;6.00;;;2.30;99.90;;;;;;5347238;26;20485;-69
2024/04/23 02:40:04;;;;;;;6.97;5.43;;;2.30;99.90;;;;;;5350037;26;20476;-66
2024/04/23 02:42:33;;;;;;;8.00;5.67;;;2.30;99.90;;;;;;5352071;26;20573;-67
2024/04/23 02:45:03;;;;;;;7.50;6.27;;;2.30;99.90;;;;;;5334725;26;20500;-66
2024/04/23 02:47:30;;;;;;;7.23;6.23;;;2.30;99.90;;;;;;5340056;26;20489;-66
2024/04/23 02:50:02;;;;;;;7.23;6.10;;;2.30;99.90;;;;;;5338086;26;21016;-66
2024/04/23 02:52:30;;;;;;;7.87;6.10;;;2.30;99.90;;;;;;5346328;26;20523;-66
2024/04/23 02:55:00;;;;;;;7.10;6.00;;;2.20;99.90;;;;;;5337450;26;20559;-67
2024/04/23 02:57:27;;;;;;;6.63;5.80;;;2.20;99.90;;;;;;5331318;26;20504;-66
2024/04/23 02:59:57;;;;;;;7.57;5.93;;;2.20;99.90;;;;;;5336825;26;20481;-66
2024/04/23 03:02:24;;;;;;;7.10;5.87;;;2.20;99.90;;;;;;5341044;26;20495;-66
2024/04/23 03:04:54;;;;;;;7.40;6.13;;;2.20;99.90;;;;;;5340135;26;20488;-66
2024/04/23 03:07:24;;;;;;;6.73;5.60;;;2.20;99.90;;;;;;5337396;26;20501;-66
2024/04/23 03:09:54;;;;;;;7.93;5.70;;;2.20;99.90;;;;;;5343861;26;20485;-66
2024/04/23 03:12:21;;;;;;;6.83;6.13;;;2.20;99.90;;;;;;5343109;26;20573;-66
2024/04/23 03:14:53;;;;;;;6.93;5.97;;;2.20;99.90;;;;;;5349683;26;20528;-65
2024/04/23 03:17:21;;;;;;;7.87;6.17;;;2.20;99.90;;;;;;5335263;26;20500;-66
2024/04/23 03:19:50;;;;;;;6.67;6.07;;;2.20;99.90;;;;;;5351090;26;20474;-66
2024/04/23 03:22:18;;;;;;;6.70;5.80;;;2.20;99.90;;;;;;5348438;26;20548;-66
2024/04/23 03:24:50;;;;;;;6.53;5.77;;;2.20;99.90;;;;;;5341031;26;20580;-66
2024/04/23 03:27:17;;;;;;;7.00;5.40;;;2.20;99.90;;;;;;5333270;26;20543;-66
2024/04/23 03:29:47;;;;;;;6.30;5.30;;;2.20;99.90;;;;;;5343288;26;20485;-66
2024/04/23 03:32:14;;;;;;;8.10;5.73;;;2.20;99.90;;;;;;5341979;26;20992;-66
2024/04/23 03:34:44;;;;;;;8.77;6.10;;;2.10;99.90;;;;;;5347939;26;20541;-66
2024/04/23 03:37:14;;;;;;;5.93;5.33;;;2.10;99.90;;;;;;5340426;26;20495;-66
2024/04/23 03:39:44;;;;;;;7.10;5.70;;;2.10;99.90;;;;;;5338693;26;20484;-66
2024/04/23 03:42:16;;;;;;;6.80;5.77;;;2.10;99.90;;;;;;5340609;26;21177;-66
2024/04/23 03:44:44;;;;;;;7.07;6.37;;;2.10;99.90;;;;;;5340880;26;20487;-65
2024/04/23 03:47:16;;;;;;;6.80;5.17;;;2.00;99.90;;;;;;5337806;26;21054;-66
2024/04/23 03:49:44;;;;;;;7.67;5.80;;;2.10;99.90;;;;;;5334856;26;20484;-66
2024/04/23 03:52:16;;;;;;;7.00;5.60;;;2.00;99.90;;;;;;5337166;26;20489;-66
2024/04/23 03:54:46;;;;;;;6.53;5.93;;;2.00;99.90;;;;;;5341775;26;20584;-66
2024/04/23 03:57:16;;;;;;;6.83;5.63;;;2.00;99.90;;;;;;5351349;26;24767;-66
2024/04/23 03:59:48;;;;;;;6.87;5.60;;;2.00;99.90;;;;;;5340802;26;20838;-65
2024/04/23 04:07:50;;;;;;;6.97;5.50;;;2.00;99.90;;;;;;5333175;26;21239;-66
2024/04/23 04:10:20;;;;;;;9.20;5.90;;;1.90;99.90;;;;;;5339349;26;21045;-66
2024/04/23 04:12:52;;;;;;;7.90;5.90;;;1.90;99.90;;;;;;5338273;26;20493;-67
2024/04/23 04:15:36;;;;;;;8.17;5.90;;;1.90;99.90;;;;;;5338106;26;20550;-66
2024/04/23 04:18:04;;;;;;;6.47;5.53;;;1.90;99.90;;;;;;5340045;26;21111;-66
2024/04/23 04:20:34;;;;;;;7.33;5.50;;;1.90;99.90;;;;;;5341197;26;20554;-66
2024/04/23 04:23:01;;;;;;;9.00;6.20;;;1.90;99.90;;;;;;5339826;26;21176;-66
2024/04/23 04:25:31;;;;;;;6.57;5.57;;;1.90;99.90;;;;;;5336014;26;20549;-66
2024/04/23 04:28:01;;;;;;;6.93;5.90;;;1.90;99.90;;;;;;5340982;26;20488;-66
2024/04/23 04:30:34;;;;;;;6.67;5.97;;;1.90;99.90;;;;;;5333638;26;20502;-66
2024/04/23 04:33:01;;;;;;;7.50;5.90;;;2.00;99.90;;;;;;5339487;26;20489;-66
2024/04/23 04:35:31;;;;;;;6.23;5.63;;;2.00;99.90;;;;;;5338664;26;20534;-66
2024/04/23 04:37:58;;;;;;;7.53;6.23;;;2.00;99.90;;;;;;5332777;26;20549;-66
2024/04/23 04:40:28;;;;;;;9.47;6.40;;;2.10;99.90;;;;;;5335940;26;20541;-67
2024/04/23 04:42:56;;;;;;;6.10;5.13;;;2.10;99.90;;;;;;5334020;26;20480;-66
2024/04/23 04:45:29;;;;;;;8.20;5.97;;;2.10;99.90;;;;;;5340287;26;20536;-66
2024/04/23 04:47:59;;;;;;;7.70;5.83;;;2.20;99.90;;;;;;5332160;26;20881;-66
2024/04/23 04:50:26;;;;;;;7.17;6.13;;;2.20;99.90;;;;;;5343318;26;20480;-66
2024/04/23 04:52:56;;;;;;;5.63;5.00;;;2.30;99.90;;;;;;5332267;26;20863;-66
2024/04/23 04:55:23;;;;;;;8.63;5.87;;;2.30;99.90;;;;;;5338293;26;20481;-66
2024/04/23 04:57:54;;;;;;;6.17;5.57;;;2.40;99.90;;;;;;5335337;26;20543;-66
2024/04/23 05:00:22;;;;;;;7.27;6.57;;;2.40;99.90;;;;;;5340904;26;22322;-66
2024/04/23 05:02:54;;;;;;;7.87;6.00;;;2.50;99.90;;;;;;5335697;26;20485;-67
2024/04/23 05:05:21;;;;;;;7.70;5.97;;;2.50;99.90;;;;;;5342631;26;21038;-66
2024/04/23 05:07:51;;;;;;;9.17;6.33;;;2.60;99.90;;;;;;5335409;26;20484;-67
2024/04/23 05:10:18;;;;;;;8.83;6.60;;;2.60;99.90;;;;;;5337738;26;20480;-66
2024/04/23 05:12:48;;;;;;;7.57;6.40;;;2.70;99.90;;;;;;5338482;26;21211;-67
2024/04/23 05:15:16;;;;;;;9.03;5.83;;;2.70;99.90;;;;;;5334903;26;21075;-66
2024/04/23 05:17:46;;;;;;;8.13;6.43;;;2.80;99.90;;;;;;5329429;26;21806;-66
2024/04/23 05:20:16;;;;;;;7.73;5.87;;;2.80;99.90;;;;;;5330901;26;20536;-71
2024/04/23 05:22:45;;;;;;;10.47;6.50;;;2.80;99.90;;;;;;5331328;26;20489;-66
2024/04/23 05:25:13;;;;;;;9.40;7.30;;;2.90;99.90;;;;;;5332319;26;20478;-66
2024/04/23 05:27:42;;;;;;;7.53;6.50;;;2.90;99.90;;;;;;5337482;26;20493;-66
2024/04/23 05:32:46;;;;;;;7.97;6.27;;;2.90;99.90;;;;;;5337781;26;21246;-66
2024/04/23 05:33:00;;;;;;;8.00;6.50;;;3.00;99.90;;;;;;5330498;26;20534;-66
2024/04/23 05:35:33;;;;;;;10.30;6.30;;;3.00;99.90;;;;;;5339982;26;21158;-67
2024/04/23 05:38:02;;;;;;;7.53;6.70;;;3.10;99.90;;;;;;5331240;26;20535;-67
2024/04/23 05:40:32;;;;;;;7.47;6.60;;;3.20;99.90;;;;;;5334023;26;20543;-67
2024/04/23 05:43:02;;;;;;;6.87;5.97;;;3.20;99.90;;;;;;5336061;26;20489;-66
2024/04/23 05:45:32;;;;;;;7.20;5.73;;;3.30;99.90;;;;;;5330395;26;20568;-66
2024/04/23 05:48:40;;;;;;;10.10;6.30;;;3.40;99.90;;;;;;5340574;26;20533;-67
2024/04/23 05:51:47;;;;;;;6.90;5.77;;;3.40;99.90;;;;;;5342133;26;20489;-66
2024/04/23 05:54:54;;;;;;;7.43;5.70;;;3.60;99.90;;;;;;5341308;26;20490;-66
2024/04/23 05:57:24;;;;;;;10.20;6.00;;;3.60;99.90;;;;;;5351494;26;20478;-67
2024/04/23 05:59:54;;;;;;;6.67;4.90;;;3.70;99.90;;;;;;5349190;26;20496;-67
2024/04/23 06:02:21;;;;;;;7.27;5.17;;;3.80;99.90;;;;;;5353374;26;20485;-67
2024/04/23 06:04:51;;;;;;;6.90;5.30;;;3.90;99.90;;;;;;5334830;26;20477;-66
2024/04/23 06:07:18;;;;;;;7.97;5.57;;;4.00;99.90;;;;;;5348025;26;20473;-66
2024/04/23 06:09:48;;;;;;;5.33;4.83;;;4.10;99.90;;;;;;5338819;26;20530;-67
2024/04/23 06:12:16;;;;;;;5.70;5.10;;;4.10;99.90;;;;;;5336096;26;20485;-66
2024/04/23 06:14:48;;;;;;;6.80;4.50;;;4.10;99.90;;;;;;5334911;26;20480;-67
2024/04/23 06:17:19;;;;;;;4.93;3.77;;;4.20;99.90;;;;;;5340127;26;20493;-67
2024/04/23 06:20:04;;;;;;;5.37;4.27;;;4.20;99.90;;;;;;5347496;26;20489;-66
2024/04/23 06:22:36;;;;;;;4.57;4.07;;;4.30;99.90;;;;;;5349719;26;20545;-66
2024/04/23 06:25:07;;;;;;;4.30;3.60;;;4.30;99.90;;;;;;5345002;26;20862;-66
2024/04/23 06:27:38;;;;;;;6.77;4.23;;;4.40;99.90;;;;;;5342607;26;20561;-67
2024/04/23 06:30:10;;;;;;;6.43;3.90;;;4.50;99.90;;;;;;5344503;26;20553;-66
2024/04/23 06:32:41;;;;;;;6.40;4.40;;;4.60;99.90;;;;;;5334115;26;20484;-67
2024/04/23 06:35:10;;;;;;;4.40;3.60;;;4.70;99.90;;;;;;5342471;26;21068;-67
2024/04/23 06:37:40;;;;;;;4.77;4.20;;;4.70;99.90;;;;;;5340987;26;21307;-66
2024/04/23 06:40:08;;;;;;;5.83;4.00;;;4.70;99.90;;;;;;5352319;26;20492;-66
2024/04/23 06:42:39;;;;;;;4.67;4.20;;;4.80;99.90;;;;;;5345048;26;20489;-66
2024/04/23 06:45:09;;;;;;;4.90;4.40;;;4.90;99.90;;;;;;5343722;26;21645;-67
2024/04/23 06:47:39;;;;;;;4.90;4.07;;;4.90;99.90;;;;;;5348107;26;20480;-66
2024/04/23 06:50:09;;;;;;;5.70;4.53;;;4.90;99.90;;;;;;5341638;26;20554;-67
2024/04/23 06:52:37;;;;;;;5.20;4.23;;;4.90;99.90;;;;;;5343081;26;20480;-66
2024/04/23 06:55:07;;;;;;;4.70;3.90;;;5.00;99.90;;;;;;5348411;26;20595;-67
2024/04/23 06:57:34;;;;;;;4.57;3.93;;;5.10;99.90;;;;;;5349520;26;20540;-67
2024/04/23 07:00:04;;;;;;;4.30;3.90;;;5.30;99.90;;;;;;5342241;26;20488;-67
2024/04/23 07:02:34;;;;;;;6.07;4.30;;;5.40;99.90;;;;;;5354321;26;20492;-67
2024/04/23 07:05:04;;;;;;;4.47;4.07;;;5.40;99.90;;;;;;5328446;26;20495;-67
2024/04/23 07:07:31;;;;;;;4.80;4.40;;;5.30;99.90;;;;;;5340733;26;20610;-67
2024/04/23 07:10:01;;;;;;;5.00;3.80;;;5.30;99.90;;;;;;5338814;26;20536;-67
2024/04/23 07:12:28;;;;;;;5.27;4.67;;;5.30;99.90;;;;;;5336176;26;20477;-67
2024/04/23 07:14:58;;;;;;;5.47;4.37;;;5.30;99.90;;;;;;5334955;26;20484;-67
2024/04/23 07:17:25;;;;;;;6.87;4.97;;;5.30;99.90;;;;;;5348042;26;20479;-67
2024/04/23 07:19:58;;;;;;;4.93;4.43;;;5.30;99.90;;;;;;5347381;26;20481;-66
2024/04/23 07:22:26;;;;;;;5.20;4.63;;;5.40;99.90;;;;;;5347948;26;20466;-67
2024/04/23 07:24:55;;;;;;;5.23;4.20;;;5.40;99.90;;;;;;5353718;26;20496;-67
2024/04/23 07:27:22;;;;;;;7.53;4.70;;;5.50;99.90;;;;;;5350248;26;20545;-66
2024/04/23 07:29:52;;;;;;;5.77;4.60;;;5.60;99.90;;;;;;5341411;26;20485;-66
2024/04/23 07:32:20;;;;;;;5.40;4.30;;;5.70;99.90;;;;;;5341401;26;21398;-66
2024/04/23 07:34:50;;;;;;;6.00;4.50;;;5.70;99.90;;;;;;5335542;26;21128;-66
2024/04/23 07:37:20;;;;;;;5.97;4.53;;;5.70;99.90;;;;;;5341228;26;21064;-67
2024/04/23 07:39:50;;;;;;;4.67;3.90;;;5.80;99.90;;;;;;5336288;26;20489;-67
2024/04/23 07:42:17;;;;;;;6.27;4.70;;;5.80;99.90;;;;;;5340895;26;20528;-67
2024/04/23 07:44:46;;;;;;;4.73;3.60;;;5.80;99.90;;;;;;5343671;26;20549;-67
2024/04/23 07:47:14;;;;;;;5.03;4.30;;;5.90;99.90;;;;;;5342241;26;21235;-67
2024/04/23 07:49:43;;;;;;;5.53;3.97;;;6.00;99.90;;;;;;5349581;26;20476;-67
2024/04/23 07:52:11;;;;;;;4.87;4.30;;;6.10;99.90;;;;;;5343339;26;20545;-67
2024/04/23 07:54:44;;;;;;;5.33;4.33;;;6.20;99.90;;;;;;5342218;26;20485;-67
2024/04/23 07:57:13;;;;;;;4.63;4.20;;;6.30;99.90;;;;;;5339995;26;20512;-67
2024/04/23 07:59:43;;;;;;;4.03;3.70;;;6.40;99.90;;;;;;5338934;26;20489;-67
2024/04/23 08:02:11;;;;;;;4.27;3.77;;;6.40;99.90;;;;;;5343947;26;20537;-67
2024/04/23 08:04:40;;;;;;;4.07;3.67;;;6.40;99.90;;;;;;5346175;26;20544;-67
2024/04/23 08:07:08;;;;;;;4.00;3.70;;;6.50;99.90;;;;;;5338518;26;21046;-67
2024/04/23 08:09:38;;;;;;;6.57;4.17;;;6.60;99.90;;;;;;5354523;26;21244;-67
2024/04/23 08:12:08;;;;;;;4.50;4.10;;;6.70;99.90;;;;;;5344062;26;20553;-67
2024/04/23 08:14:38;;;;;;;4.30;3.90;;;6.70;99.90;;;;;;5346187;26;21000;-67
2024/04/23 08:17:05;;;;;;;4.13;3.73;;;6.80;99.90;;;;;;5336877;26;20503;-67
2024/04/23 08:19:35;;;;;;;4.60;4.20;;;6.80;99.90;;;;;;5343172;26;20480;-67
2024/04/23 08:22:02;;;;;;;4.60;4.20;;;6.80;99.90;;;;;;5341858;26;20488;-67
2024/04/23 08:24:32;;;;;;;4.00;3.60;;;6.80;99.90;;;;;;5348940;26;20524;-67
2024/04/23 08:26:59;;;;;;;3.97;3.50;;;6.80;99.90;;;;;;5343545;26;21045;-67
2024/04/23 08:29:32;;;;;;;4.40;4.00;;;6.70;99.90;;;;;;5346741;26;20480;-67
2024/04/23 08:31:59;;;;;;;4.40;3.60;;;6.80;99.90;;;;;;5341463;26;20545;-67
2024/04/23 08:34:29;;;;;;;4.40;4.03;;;6.80;99.90;;;;;;5337517;26;20572;-67
2024/04/23 08:36:56;;;;;;;4.60;3.70;;;6.90;99.90;;;;;;5344518;26;20501;-67
2024/04/23 08:39:26;;;;;;;4.83;3.80;;;7.00;99.90;;;;;;5346417;26;21039;-67
2024/04/23 08:41:55;;;;;;;4.70;4.20;;;6.90;99.90;;;;;;5344562;26;20535;-67
2024/04/23 08:44:28;;;;;;;4.33;3.93;;;6.90;99.90;;;;;;5348924;26;20484;-67
2024/04/23 08:47:00;;;;;;;5.33;3.67;;;7.00;99.90;;;;;;5338642;26;20549;-67
2024/04/23 08:49:28;;;;;;;4.40;3.70;;;7.10;99.90;;;;;;5335413;26;20572;-67
2024/04/23 08:51:59;;;;;;;3.83;3.53;;;7.10;99.90;;;;;;5339482;26;20489;-67
2024/04/23 08:54:27;;;;;;;3.70;3.10;;;7.20;99.90;;;;;;5353795;26;20566;-67
2024/04/23 08:56:58;;;;;;;4.23;3.83;;;7.30;99.90;;;;;;5343149;26;20495;-67
2024/04/23 08:59:30;;;;;;;3.87;3.53;;;7.40;99.90;;;;;;5345673;26;20476;-67
2024/04/23 09:02:06;;;;;;;4.07;3.60;;;7.40;99.90;;;;;;5348245;26;20482;-67
2024/04/23 09:04:33;;;;;;;4.07;3.77;;;7.30;99.90;;;;;;5341422;26;21057;-67
2024/04/23 09:07:04;;;;;;;3.83;3.50;;;7.40;99.90;;;;;;5347468;26;20553;-67
2024/04/23 09:09:31;;;;;;;4.27;3.67;;;7.40;99.90;;;;;;5346917;26;21175;-67
2024/04/23 09:12:02;;;;;;;6.67;4.13;;;7.40;99.90;;;;;;5338323;26;20561;-67
2024/04/23 09:14:30;;;;;;;3.77;3.33;;;7.50;99.90;;;;;;5340601;26;20492;-67
2024/04/23 09:17:03;;;;;;;3.97;3.57;;;7.50;99.90;;;;;;5331708;26;20544;-67
2024/04/23 09:19:31;;;;;;;3.90;3.60;;;7.50;99.90;;;;;;5352358;26;20488;-67
2024/04/23 09:22:01;;;;;;;3.37;3.07;;;7.60;99.90;;;;;;5332175;26;20530;-67
2024/04/23 09:24:32;;;;;;;4.33;3.93;;;7.70;99.90;;;;;;5342462;26;21255;-67
2024/04/23 09:27:07;;;;;;;3.43;3.13;;;7.70;99.90;;;;;;5341966;26;20541;-67
2024/04/23 09:29:35;;;;;;;5.20;4.20;;;7.80;99.90;;;;;;5338299;26;21306;-67
2024/04/23 09:32:08;;;;;;;4.00;3.60;;;7.80;99.90;;;;;;5341096;26;20576;-67
2024/04/23 09:34:35;;;;;;;4.13;3.70;;;7.90;99.90;;;;;;5337331;26;20576;-67
2024/04/23 09:37:18;;;;;;;3.77;3.37;;;8.00;99.90;;;;;;5348166;26;20579;-67
2024/04/23 09:39:45;;;;;;;3.40;3.10;;;8.00;99.90;;;;;;5344336;26;22225;-67
2024/04/23 09:42:24;;;;;;;5.27;3.00;;;8.20;99.90;;;;;;5339234;26;20606;-67
2024/04/23 09:44:53;;;;;;;4.47;2.97;;;8.20;99.90;;;;;;5343726;26;20530;-67
2024/04/23 09:47:26;;;;;;;3.87;3.23;;;8.30;99.90;;;;;;5351000;26;20546;-67
2024/04/23 09:49:53;;;;;;;3.17;2.87;;;8.40;99.90;;;;;;5350940;26;20488;-67
2024/04/23 09:52:31;;;;;;;3.43;3.10;;;8.40;99.90;;;;;;5342637;26;20495;-67
2024/04/23 09:55:00;;;;;;;3.20;2.90;;;8.40;99.90;;;;;;5337930;26;20594;-67
2024/04/23 09:57:30;;;;;;;3.93;3.13;;;8.40;99.90;;;;;;5343033;26;20582;-67
2024/04/23 09:59:57;;;;;;;6.07;3.10;;;8.40;99.90;;;;;;5339611;26;20493;-67
2024/04/23 10:02:31;;;;;;;3.63;3.33;;;8.40;99.90;;;;;;5355057;26;20485;-67
2024/04/23 10:05:03;;;;;;;4.00;3.60;;;8.30;99.90;;;;;;5354426;26;22875;-67
2024/04/23 10:07:38;;;;;;;3.83;3.53;;;8.40;99.90;;;;;;5348743;26;20532;-67
2024/04/23 10:10:08;;;;;;;3.90;3.13;;;8.40;99.90;;;;;;5347063;26;20484;-67
2024/04/23 10:12:44;;;;;;;4.17;3.77;;;8.50;99.90;;;;;;5347181;26;20604;-67
2024/04/23 10:15:18;;;;;;;3.60;2.97;;;8.60;99.90;;;;;;5340429;26;20965;-67
2024/04/23 10:17:56;;;;;;;3.63;3.33;;;8.70;99.90;;;;;;5357552;26;20539;-67
2024/04/23 10:20:33;;;;;;;3.87;3.57;;;8.70;99.90;;;;;;5351559;26;20483;-67
2024/04/23 10:23:04;;;;;;;3.20;3.00;;;8.60;99.90;;;;;;5339310;26;21185;-67
2024/04/23 10:25:33;;;;;;;4.00;3.17;;;8.70;99.90;;;;;;5350191;26;20485;-67
2024/04/23 10:28:07;;;;;;;3.83;3.17;;;8.80;99.90;;;;;;5355176;26;20784;-67
2024/04/23 10:30:35;;;;;;;3.90;3.50;;;8.90;99.90;;;;;;5340967;26;21433;-67
2024/04/23 10:33:11;;;;;;;5.00;3.40;;;9.00;99.90;;;;;;5344125;26;20489;-67
2024/04/23 10:35:40;;;;;;;7.03;3.67;;;9.00;99.90;;;;;;5349606;26;20495;-67
2024/04/23 10:38:14;;;;;;;3.30;3.00;;;8.90;99.90;;;;;;5337220;26;21118;-67
2024/04/23 10:40:44;;;;;;;4.43;3.30;;;9.00;99.90;;;;;;5338331;26;20535;-67
2024/04/23 10:43:27;;;;;;;3.60;3.30;;;9.00;99.90;;;;;;5350223;26;20800;-66
2024/04/23 10:45:54;;;;;;;3.40;3.10;;;9.20;99.90;;;;;;5339436;26;20499;-67
2024/04/23 10:48:30;;;;;;;3.33;3.03;;;9.30;99.90;;;;;;5336901;26;20577;-67
2024/04/23 10:50:58;;;;;;;3.60;3.30;;;9.40;99.90;;;;;;5345967;26;20614;-67
2024/04/23 10:53:28;;;;;;;4.10;3.57;;;9.40;97.10;;;;;;5341835;26;20531;-66
2024/04/23 10:55:56;;;;;;;3.93;3.50;;;9.50;99.30;;;;;;5345124;26;20552;-67
2024/04/23 10:58:27;;;;;;;3.77;3.40;;;9.50;99.90;;;;;;5352680;26;20491;-69
2024/04/23 11:01:01;;;;;;;4.47;4.07;;;9.60;99.90;;;;;;5344149;26;20493;-67
2024/04/23 11:03:37;;;;;;;4.83;3.63;;;9.60;99.90;;;;;;5342470;26;20547;-67
2024/04/23 11:06:05;;;;;;;4.90;4.40;;;9.70;99.90;;;;;;5341093;26;20955;-67
2024/04/23 11:08:40;;;;;;;6.10;4.47;;;9.70;99.90;;;;;;5344436;26;20522;-67
2024/04/23 11:11:08;;;;;;;5.20;4.70;;;9.70;98.30;;;;;;5352858;26;20509;-67
2024/04/23 11:13:40;;;;;;;4.40;4.03;;;9.60;99.20;;;;;;5342138;26;20493;-68
2024/04/23 11:16:14;;;;;;;5.30;4.80;;;9.60;99.00;;;;;;5342216;26;20486;-67
2024/04/23 11:18:51;;;;;;;5.17;4.67;;;9.50;99.90;;;;;;5350072;26;20572;-68
2024/04/23 11:21:24;;;;;;;5.33;4.80;;;9.60;99.90;;;;;;5357248;26;20499;-68
2024/04/23 11:23:54;;;;;;;5.17;4.77;;;9.40;99.90;;;;;;5341810;26;20541;-67
2024/04/23 11:26:22;;;;;;;5.23;4.73;;;9.40;99.90;;;;;;5333746;26;20537;-67
2024/04/23 11:28:52;;;;;;;5.43;4.67;;;9.30;99.90;;;;;;5345527;26;20596;-68
2024/04/23 11:31:20;;;;;;;5.13;4.63;;;9.30;99.90;;;;;;5353074;26;20488;-67
2024/04/23 11:33:53;;;;;;;5.30;4.90;;;9.30;99.90;;;;;;5345851;26;20579;-67
2024/04/23 11:36:27;;;;;;;5.30;4.80;;;9.20;99.90;;;;;;5346125;26;20500;-67
2024/04/23 11:39:00;;;;;;;5.20;4.70;;;9.20;99.90;;;;;;5333267;26;20522;-66
2024/04/23 11:41:28;;;;;;;5.53;4.90;;;9.20;99.90;;;;;;5339141;26;20487;-67
2024/04/23 11:44:01;;;;;;;4.87;4.47;;;9.20;99.90;;;;;;5344052;26;20489;-67
2024/04/23 11:46:29;;;;;;;4.20;3.87;;;9.10;99.90;;;;;;5351535;26;20601;-66
2024/04/23 11:49:02;;;;;;;4.47;4.03;;;9.10;99.90;;;;;;5346337;26;21169;-66
2024/04/23 11:51:29;;;;;;;4.50;4.07;;;9.00;99.90;;;;;;5348491;26;20485;-66
2024/04/23 11:53:59;;;;;;;3.73;3.43;;;9.00;99.90;;;;;;5345749;26;20489;-67
2024/04/23 11:56:26;;;;;;;3.90;3.60;;;9.00;99.90;;;;;;5347714;26;20488;-67
2024/04/23 11:58:57;;;;;;;4.03;3.33;;;9.00;99.90;;;;;;5355590;26;20508;-67
2024/04/23 12:01:26;;;;;;;3.90;3.50;;;9.10;99.90;;;;;;5349903;26;20585;-67
2024/04/23 12:03:56;;;;;;;3.90;3.60;;;9.10;97.60;;;;;;5346387;26;20488;-66
2024/04/23 12:06:26;;;;;;;3.77;3.47;;;9.10;98.40;;;;;;5345683;26;20484;-66
2024/04/23 12:08:57;;;;;;;4.20;3.80;;;9.20;99.10;;;;;;5340542;26;20532;-66
2024/04/23 12:11:24;;;;;;;5.27;4.30;;;9.20;99.90;;;;;;5354750;26;21020;-66
2024/04/23 12:13:54;;;;;;;4.80;4.40;;;9.20;99.90;;;;;;5354482;26;20488;-67
2024/04/23 12:16:21;;;;;;;4.17;3.73;;;9.10;99.90;;;;;;5350743;26;20509;-66
2024/04/23 12:18:51;;;;;;;6.03;3.73;;;9.10;99.90;;;;;;5339083;26;21028;-67
2024/04/23 12:21:26;;;;;;;3.80;3.50;;;9.00;99.90;;;;;;5352341;26;20529;-67
2024/04/23 12:23:55;;;;;;;4.30;3.90;;;9.00;99.90;;;;;;5351733;26;20472;-67
2024/04/23 12:26:24;;;;;;;4.10;3.70;;;9.00;99.90;;;;;;5338190;26;20500;-67
2024/04/23 12:28:54;;;;;;;6.90;4.60;;;9.10;99.90;;;;;;5343595;26;20480;-67
2024/04/23 12:31:22;;;;;;;4.20;3.90;;;9.20;99.90;;;;;;5346511;26;20482;-67
2024/04/23 12:33:57;;;;;;;4.10;3.57;;;9.20;99.90;;;;;;5346604;26;20477;-66
2024/04/23 12:36:27;;;;;;;4.37;3.80;;;9.30;99.90;;;;;;5346140;26;20547;-67
2024/04/23 12:38:57;;;;;;;4.43;4.03;;;9.30;98.80;;;;;;5345550;26;20492;-67
2024/04/23 12:41:25;;;;;;;4.40;4.00;;;9.40;99.70;;;;;;5354254;26;21282;-67
2024/04/23 12:43:55;;;;;;;3.90;3.60;;;9.50;99.60;;;;;;5349133;26;20484;-66
2024/04/23 12:46:22;;;;;;;5.00;3.30;;;9.50;99.10;;;;;;5345353;26;20544;-67
2024/04/23 12:48:52;;;;;;;3.67;3.37;;;9.70;98.20;;;;;;5333000;26;21182;-67
2024/04/23 12:51:19;;;;;;;3.97;3.57;;;9.90;97.00;;;;;;5341451;26;21152;-67
2024/04/23 12:53:52;;;;;;;4.10;3.50;;;10.00;95.60;;;;;;5348364;26;20537;-67
2024/04/23 12:56:19;;;;;;;4.60;3.50;;;10.20;95.60;;;;;;5336503;26;20550;-67
2024/04/23 12:58:54;;;;;;;4.00;3.50;;;10.40;87.20;;;;;;5349594;26;20485;-67
2024/04/23 13:01:22;;;;;;;4.33;3.93;;;10.60;92.90;;;;;;5337196;26;21152;-68
2024/04/23 13:04:07;;;;;;;3.63;3.33;;;10.80;86.70;;;;;;5352771;26;21127;-67
2024/04/23 13:06:36;;;;;;;4.00;3.60;;;11.00;90.20;;;;;;5341294;26;21187;-67
2024/04/23 13:09:08;;;;;;;4.00;3.70;;;11.10;84.40;;;;;;5346190;26;20918;-67
2024/04/23 13:11:35;;;;;;;4.33;4.00;;;11.10;78.60;;;;;;5342390;26;21166;-67
2024/04/23 13:14:05;;;;;;;4.80;3.33;;;11.10;73.70;;;;;;5330619;26;20569;-67
2024/04/23 13:16:33;;;;;;;3.30;3.03;;;11.00;73.60;;;;;;5338587;26;20500;-67